sensor_id;sensor_type;location;lat;lon;timestamp;P1;durP1;ratioP1;P2;durP2;ratioP2
34459;SDS011;20704;51.260;22.558;2022-08-19T00:00:30;12.35;;;9.77;;
34459;SDS011;20704;51.260;22.558;2022-08-19T00:03:04;20.77;;;10.68;;
34459;SDS011;20704;51.260;22.558;2022-08-19T00:05:32;18.60;;;9.80;;
34459;SDS011;20704;51.260;22.558;2022-08-19T00:07:59;13.88;;;9.45;;
34459;SDS011;20704;51.260;22.558;2022-08-19T00:10:26;13.85;;;8.88;;
34459;SDS011;20704;51.260;22.558;2022-08-19T00:12:52;15.70;;;9.65;;
34459;SDS011;20704;51.260;22.558;2022-08-19T00:15:19;16.83;;;10.38;;
34459;SDS011;20704;51.260;22.558;2022-08-19T00:17:47;15.27;;;10.25;;
34459;SDS011;20704;51.260;22.558;2022-08-19T00:20:17;12.95;;;9.68;;
34459;SDS011;20704;51.260;22.558;2022-08-19T00:22:45;13.80;;;9.50;;
34459;SDS011;20704;51.260;22.558;2022-08-19T00:25:12;14.32;;;9.43;;
34459;SDS011;20704;51.260;22.558;2022-08-19T00:27:39;13.95;;;10.30;;
34459;SDS011;20704;51.260;22.558;2022-08-19T00:30:06;18.00;;;9.73;;
34459;SDS011;20704;51.260;22.558;2022-08-19T00:32:33;12.48;;;9.40;;
34459;SDS011;20704;51.260;22.558;2022-08-19T00:35:00;18.40;;;11.77;;
34459;SDS011;20704;51.260;22.558;2022-08-19T00:37:26;17.40;;;9.95;;
34459;SDS011;20704;51.260;22.558;2022-08-19T00:39:52;17.00;;;9.52;;
34459;SDS011;20704;51.260;22.558;2022-08-19T00:42:20;18.15;;;9.32;;
34459;SDS011;20704;51.260;22.558;2022-08-19T00:44:47;14.80;;;9.32;;
34459;SDS011;20704;51.260;22.558;2022-08-19T00:47:14;12.82;;;9.35;;
34459;SDS011;20704;51.260;22.558;2022-08-19T00:49:45;15.63;;;8.95;;
34459;SDS011;20704;51.260;22.558;2022-08-19T00:52:18;15.55;;;9.63;;
34459;SDS011;20704;51.260;22.558;2022-08-19T00:54:48;13.43;;;9.02;;
34459;SDS011;20704;51.260;22.558;2022-08-19T00:57:15;14.75;;;8.82;;
34459;SDS011;20704;51.260;22.558;2022-08-19T00:59:46;16.35;;;9.20;;
34459;SDS011;20704;51.260;22.558;2022-08-19T01:02:17;15.20;;;9.65;;
34459;SDS011;20704;51.260;22.558;2022-08-19T01:04:43;13.13;;;9.93;;
34459;SDS011;20704;51.260;22.558;2022-08-19T01:07:10;14.05;;;8.73;;
34459;SDS011;20704;51.260;22.558;2022-08-19T01:09:36;12.43;;;9.40;;
34459;SDS011;20704;51.260;22.558;2022-08-19T01:12:03;12.20;;;8.43;;
34459;SDS011;20704;51.260;22.558;2022-08-19T01:14:30;13.13;;;8.18;;
34459;SDS011;20704;51.260;22.558;2022-08-19T01:16:56;11.25;;;8.68;;
34459;SDS011;20704;51.260;22.558;2022-08-19T01:19:33;13.00;;;8.65;;
34459;SDS011;20704;51.260;22.558;2022-08-19T01:24:48;12.85;;;9.13;;
34459;SDS011;20704;51.260;22.558;2022-08-19T01:27:15;16.95;;;9.32;;
34459;SDS011;20704;51.260;22.558;2022-08-19T01:29:42;16.05;;;9.13;;
34459;SDS011;20704;51.260;22.558;2022-08-19T01:32:12;11.30;;;8.57;;
34459;SDS011;20704;51.260;22.558;2022-08-19T01:34:40;12.02;;;9.07;;
34459;SDS011;20704;51.260;22.558;2022-08-19T01:37:07;16.58;;;9.60;;
34459;SDS011;20704;51.260;22.558;2022-08-19T01:39:37;15.80;;;9.25;;
34459;SDS011;20704;51.260;22.558;2022-08-19T01:42:05;13.10;;;8.52;;
34459;SDS011;20704;51.260;22.558;2022-08-19T01:44:37;16.52;;;9.38;;
34459;SDS011;20704;51.260;22.558;2022-08-19T01:47:05;16.92;;;9.48;;
34459;SDS011;20704;51.260;22.558;2022-08-19T01:49:32;14.63;;;9.48;;
34459;SDS011;20704;51.260;22.558;2022-08-19T01:51:59;13.80;;;9.60;;
34459;SDS011;20704;51.260;22.558;2022-08-19T01:54:26;15.45;;;9.50;;
34459;SDS011;20704;51.260;22.558;2022-08-19T01:56:54;16.60;;;9.00;;
34459;SDS011;20704;51.260;22.558;2022-08-19T01:59:25;12.93;;;8.77;;
34459;SDS011;20704;51.260;22.558;2022-08-19T02:01:51;17.92;;;10.45;;
34459;SDS011;20704;51.260;22.558;2022-08-19T02:04:18;16.30;;;9.55;;
34459;SDS011;20704;51.260;22.558;2022-08-19T02:06:44;15.20;;;8.48;;
34459;SDS011;20704;51.260;22.558;2022-08-19T02:09:11;13.30;;;9.55;;
34459;SDS011;20704;51.260;22.558;2022-08-19T02:11:37;14.98;;;8.63;;
34459;SDS011;20704;51.260;22.558;2022-08-19T02:14:05;11.20;;;7.95;;
34459;SDS011;20704;51.260;22.558;2022-08-19T02:16:33;15.02;;;9.55;;
34459;SDS011;20704;51.260;22.558;2022-08-19T02:18:59;12.88;;;9.10;;
34459;SDS011;20704;51.260;22.558;2022-08-19T02:21:26;13.40;;;9.15;;
34459;SDS011;20704;51.260;22.558;2022-08-19T02:23:53;18.60;;;9.00;;
34459;SDS011;20704;51.260;22.558;2022-08-19T02:26:21;11.27;;;8.88;;
34459;SDS011;20704;51.260;22.558;2022-08-19T02:28:47;18.38;;;9.38;;
34459;SDS011;20704;51.260;22.558;2022-08-19T02:31:19;14.15;;;10.02;;
34459;SDS011;20704;51.260;22.558;2022-08-19T02:33:47;15.77;;;10.07;;
34459;SDS011;20704;51.260;22.558;2022-08-19T02:36:14;18.80;;;10.18;;
34459;SDS011;20704;51.260;22.558;2022-08-19T02:38:41;12.57;;;9.98;;
34459;SDS011;20704;51.260;22.558;2022-08-19T02:41:13;11.57;;;8.85;;
34459;SDS011;20704;51.260;22.558;2022-08-19T02:43:41;11.50;;;8.10;;
34459;SDS011;20704;51.260;22.558;2022-08-19T02:46:12;16.50;;;10.00;;
34459;SDS011;20704;51.260;22.558;2022-08-19T02:51:03;16.33;;;9.68;;
34459;SDS011;20704;51.260;22.558;2022-08-19T02:53:30;14.77;;;11.38;;
34459;SDS011;20704;51.260;22.558;2022-08-19T02:55:57;15.88;;;10.88;;
34459;SDS011;20704;51.260;22.558;2022-08-19T02:58:23;19.17;;;11.13;;
34459;SDS011;20704;51.260;22.558;2022-08-19T03:00:51;15.82;;;11.60;;
34459;SDS011;20704;51.260;22.558;2022-08-19T03:03:18;15.43;;;10.98;;
34459;SDS011;20704;51.260;22.558;2022-08-19T03:05:45;20.00;;;12.45;;
34459;SDS011;20704;51.260;22.558;2022-08-19T03:08:12;19.50;;;13.35;;
34459;SDS011;20704;51.260;22.558;2022-08-19T03:10:42;21.77;;;11.98;;
34459;SDS011;20704;51.260;22.558;2022-08-19T03:13:12;19.40;;;11.25;;
34459;SDS011;20704;51.260;22.558;2022-08-19T03:15:42;19.33;;;12.07;;
34459;SDS011;20704;51.260;22.558;2022-08-19T03:18:09;19.70;;;13.05;;
34459;SDS011;20704;51.260;22.558;2022-08-19T03:20:45;18.42;;;13.27;;
34459;SDS011;20704;51.260;22.558;2022-08-19T03:23:13;18.45;;;13.50;;
34459;SDS011;20704;51.260;22.558;2022-08-19T03:25:40;21.92;;;11.98;;
34459;SDS011;20704;51.260;22.558;2022-08-19T03:28:12;32.05;;;13.32;;
34459;SDS011;20704;51.260;22.558;2022-08-19T03:30:40;22.25;;;13.32;;
34459;SDS011;20704;51.260;22.558;2022-08-19T03:33:09;20.05;;;12.82;;
34459;SDS011;20704;51.260;22.558;2022-08-19T03:35:37;19.25;;;11.93;;
34459;SDS011;20704;51.260;22.558;2022-08-19T03:38:04;19.77;;;11.32;;
34459;SDS011;20704;51.260;22.558;2022-08-19T03:40:32;16.42;;;11.00;;
34459;SDS011;20704;51.260;22.558;2022-08-19T03:43:01;15.50;;;11.35;;
34459;SDS011;20704;51.260;22.558;2022-08-19T03:45:28;18.80;;;11.73;;
34459;SDS011;20704;51.260;22.558;2022-08-19T03:47:54;18.85;;;11.80;;
34459;SDS011;20704;51.260;22.558;2022-08-19T03:50:20;16.65;;;11.13;;
34459;SDS011;20704;51.260;22.558;2022-08-19T03:52:51;16.90;;;11.77;;
34459;SDS011;20704;51.260;22.558;2022-08-19T03:55:18;17.58;;;10.95;;
34459;SDS011;20704;51.260;22.558;2022-08-19T03:57:44;16.63;;;10.85;;
34459;SDS011;20704;51.260;22.558;2022-08-19T04:00:11;12.30;;;10.00;;
34459;SDS011;20704;51.260;22.558;2022-08-19T04:02:38;21.10;;;10.48;;
34459;SDS011;20704;51.260;22.558;2022-08-19T04:05:04;13.40;;;9.93;;
34459;SDS011;20704;51.260;22.558;2022-08-19T04:07:31;13.48;;;9.57;;
34459;SDS011;20704;51.260;22.558;2022-08-19T04:09:58;14.43;;;10.10;;
34459;SDS011;20704;51.260;22.558;2022-08-19T04:12:25;20.70;;;10.20;;
34459;SDS011;20704;51.260;22.558;2022-08-19T04:14:52;14.88;;;9.38;;
34459;SDS011;20704;51.260;22.558;2022-08-19T04:17:18;14.68;;;8.82;;
34459;SDS011;20704;51.260;22.558;2022-08-19T04:19:45;14.10;;;8.98;;
34459;SDS011;20704;51.260;22.558;2022-08-19T04:22:11;14.80;;;8.75;;
34459;SDS011;20704;51.260;22.558;2022-08-19T04:24:37;16.45;;;10.15;;
34459;SDS011;20704;51.260;22.558;2022-08-19T04:27:04;15.15;;;9.30;;
34459;SDS011;20704;51.260;22.558;2022-08-19T04:29:31;12.52;;;8.90;;
34459;SDS011;20704;51.260;22.558;2022-08-19T04:31:58;12.65;;;7.82;;
34459;SDS011;20704;51.260;22.558;2022-08-19T04:34:26;14.65;;;8.88;;
34459;SDS011;20704;51.260;22.558;2022-08-19T04:36:54;12.32;;;8.85;;
34459;SDS011;20704;51.260;22.558;2022-08-19T04:39:23;12.30;;;8.48;;
34459;SDS011;20704;51.260;22.558;2022-08-19T04:42:10;15.10;;;9.75;;
34459;SDS011;20704;51.260;22.558;2022-08-19T04:44:55;15.32;;;8.80;;
34459;SDS011;20704;51.260;22.558;2022-08-19T04:47:22;13.15;;;8.30;;
34459;SDS011;20704;51.260;22.558;2022-08-19T04:49:48;10.57;;;7.82;;
34459;SDS011;20704;51.260;22.558;2022-08-19T04:52:15;15.23;;;8.85;;
34459;SDS011;20704;51.260;22.558;2022-08-19T04:54:41;9.73;;;7.55;;
34459;SDS011;20704;51.260;22.558;2022-08-19T04:57:08;9.45;;;7.47;;
34459;SDS011;20704;51.260;22.558;2022-08-19T04:59:38;14.80;;;8.35;;
34459;SDS011;20704;51.260;22.558;2022-08-19T05:02:06;11.95;;;8.00;;
34459;SDS011;20704;51.260;22.558;2022-08-19T05:04:33;8.55;;;7.00;;
34459;SDS011;20704;51.260;22.558;2022-08-19T05:07:00;9.63;;;8.27;;
34459;SDS011;20704;51.260;22.558;2022-08-19T05:09:27;13.65;;;7.70;;
34459;SDS011;20704;51.260;22.558;2022-08-19T05:11:53;14.20;;;6.78;;
34459;SDS011;20704;51.260;22.558;2022-08-19T05:14:20;9.23;;;7.95;;
34459;SDS011;20704;51.260;22.558;2022-08-19T05:16:47;12.50;;;7.03;;
34459;SDS011;20704;51.260;22.558;2022-08-19T05:19:13;16.05;;;6.88;;
34459;SDS011;20704;51.260;22.558;2022-08-19T05:21:59;9.32;;;7.15;;
34459;SDS011;20704;51.260;22.558;2022-08-19T05:24:44;17.10;;;8.23;;
34459;SDS011;20704;51.260;22.558;2022-08-19T05:27:10;13.18;;;7.75;;
34459;SDS011;20704;51.260;22.558;2022-08-19T05:29:37;14.82;;;8.95;;
34459;SDS011;20704;51.260;22.558;2022-08-19T05:32:05;12.38;;;8.10;;
34459;SDS011;20704;51.260;22.558;2022-08-19T05:34:34;10.95;;;7.43;;
34459;SDS011;20704;51.260;22.558;2022-08-19T05:37:03;14.38;;;7.97;;
34459;SDS011;20704;51.260;22.558;2022-08-19T05:39:30;8.77;;;7.57;;
34459;SDS011;20704;51.260;22.558;2022-08-19T05:41:59;11.57;;;7.93;;
34459;SDS011;20704;51.260;22.558;2022-08-19T05:44:27;10.90;;;7.22;;
34459;SDS011;20704;51.260;22.558;2022-08-19T05:46:58;10.70;;;7.82;;
34459;SDS011;20704;51.260;22.558;2022-08-19T05:49:25;10.90;;;7.47;;
34459;SDS011;20704;51.260;22.558;2022-08-19T05:51:53;13.45;;;7.70;;
34459;SDS011;20704;51.260;22.558;2022-08-19T05:54:20;12.98;;;7.70;;
34459;SDS011;20704;51.260;22.558;2022-08-19T05:56:49;11.73;;;7.50;;
34459;SDS011;20704;51.260;22.558;2022-08-19T05:59:16;17.52;;;7.90;;
34459;SDS011;20704;51.260;22.558;2022-08-19T06:01:43;14.93;;;8.18;;
34459;SDS011;20704;51.260;22.558;2022-08-19T06:04:11;14.27;;;8.77;;
34459;SDS011;20704;51.260;22.558;2022-08-19T06:06:43;12.30;;;8.18;;
34459;SDS011;20704;51.260;22.558;2022-08-19T06:09:09;17.15;;;8.77;;
34459;SDS011;20704;51.260;22.558;2022-08-19T06:14:08;17.77;;;9.45;;
34459;SDS011;20704;51.260;22.558;2022-08-19T06:16:37;11.30;;;8.25;;
34459;SDS011;20704;51.260;22.558;2022-08-19T06:19:05;13.02;;;7.95;;
34459;SDS011;20704;51.260;22.558;2022-08-19T06:21:33;10.18;;;7.63;;
34459;SDS011;20704;51.260;22.558;2022-08-19T06:26:30;12.30;;;6.95;;
34459;SDS011;20704;51.260;22.558;2022-08-19T06:28:56;11.57;;;6.75;;
34459;SDS011;20704;51.260;22.558;2022-08-19T06:31:25;12.65;;;7.07;;
34459;SDS011;20704;51.260;22.558;2022-08-19T06:33:53;16.15;;;7.30;;
34459;SDS011;20704;51.260;22.558;2022-08-19T06:36:23;11.20;;;7.53;;
34459;SDS011;20704;51.260;22.558;2022-08-19T06:38:55;9.55;;;7.30;;
34459;SDS011;20704;51.260;22.558;2022-08-19T06:43:51;10.40;;;6.50;;
34459;SDS011;20704;51.260;22.558;2022-08-19T06:46:18;11.35;;;7.00;;
34459;SDS011;20704;51.260;22.558;2022-08-19T06:48:45;9.70;;;6.45;;
34459;SDS011;20704;51.260;22.558;2022-08-19T06:51:13;9.73;;;6.80;;
34459;SDS011;20704;51.260;22.558;2022-08-19T06:53:44;16.13;;;7.45;;
34459;SDS011;20704;51.260;22.558;2022-08-19T06:56:14;15.32;;;6.22;;
34459;SDS011;20704;51.260;22.558;2022-08-19T06:58:42;11.25;;;7.10;;
34459;SDS011;20704;51.260;22.558;2022-08-19T07:01:09;9.68;;;6.40;;
34459;SDS011;20704;51.260;22.558;2022-08-19T07:03:37;11.88;;;7.68;;
34459;SDS011;20704;51.260;22.558;2022-08-19T07:06:05;14.73;;;6.70;;
34459;SDS011;20704;51.260;22.558;2022-08-19T07:08:33;9.68;;;6.80;;
34459;SDS011;20704;51.260;22.558;2022-08-19T07:11:02;9.52;;;6.50;;
34459;SDS011;20704;51.260;22.558;2022-08-19T07:13:33;12.20;;;6.30;;
34459;SDS011;20704;51.260;22.558;2022-08-19T07:16:03;13.02;;;6.30;;
34459;SDS011;20704;51.260;22.558;2022-08-19T07:18:30;12.98;;;7.47;;
34459;SDS011;20704;51.260;22.558;2022-08-19T07:21:10;10.95;;;6.40;;
34459;SDS011;20704;51.260;22.558;2022-08-19T07:23:39;12.93;;;7.43;;
34459;SDS011;20704;51.260;22.558;2022-08-19T07:26:10;10.88;;;6.35;;
34459;SDS011;20704;51.260;22.558;2022-08-19T07:31:12;9.80;;;6.50;;
34459;SDS011;20704;51.260;22.558;2022-08-19T07:33:40;8.15;;;5.45;;
34459;SDS011;20704;51.260;22.558;2022-08-19T07:36:09;10.00;;;6.13;;
34459;SDS011;20704;51.260;22.558;2022-08-19T07:38:36;7.78;;;6.28;;
34459;SDS011;20704;51.260;22.558;2022-08-19T07:41:05;8.15;;;5.95;;
34459;SDS011;20704;51.260;22.558;2022-08-19T07:43:32;11.57;;;6.03;;
34459;SDS011;20704;51.260;22.558;2022-08-19T07:45:58;12.25;;;6.10;;
34459;SDS011;20704;51.260;22.558;2022-08-19T07:48:25;12.52;;;5.47;;
34459;SDS011;20704;51.260;22.558;2022-08-19T07:50:54;9.88;;;5.53;;
34459;SDS011;20704;51.260;22.558;2022-08-19T07:53:22;9.75;;;5.60;;
34459;SDS011;20704;51.260;22.558;2022-08-19T07:55:49;6.90;;;5.35;;
34459;SDS011;20704;51.260;22.558;2022-08-19T07:58:19;6.90;;;5.03;;
34459;SDS011;20704;51.260;22.558;2022-08-19T08:00:47;10.63;;;6.03;;
34459;SDS011;20704;51.260;22.558;2022-08-19T08:03:15;11.18;;;6.00;;
34459;SDS011;20704;51.260;22.558;2022-08-19T08:05:43;12.10;;;5.30;;
34459;SDS011;20704;51.260;22.558;2022-08-19T08:08:28;6.28;;;4.97;;
34459;SDS011;20704;51.260;22.558;2022-08-19T08:11:19;9.23;;;4.93;;
34459;SDS011;20704;51.260;22.558;2022-08-19T08:13:46;15.55;;;7.18;;
34459;SDS011;20704;51.260;22.558;2022-08-19T08:16:14;5.30;;;4.80;;
34459;SDS011;20704;51.260;22.558;2022-08-19T08:18:41;8.70;;;5.63;;
34459;SDS011;20704;51.260;22.558;2022-08-19T08:21:08;10.32;;;4.57;;
34459;SDS011;20704;51.260;22.558;2022-08-19T08:23:35;17.17;;;5.80;;
34459;SDS011;20704;51.260;22.558;2022-08-19T08:26:01;15.40;;;5.40;;
34459;SDS011;20704;51.260;22.558;2022-08-19T08:28:30;10.13;;;4.80;;
34459;SDS011;20704;51.260;22.558;2022-08-19T08:30:56;7.88;;;4.72;;
34459;SDS011;20704;51.260;22.558;2022-08-19T08:33:24;10.18;;;4.95;;
34459;SDS011;20704;51.260;22.558;2022-08-19T08:35:51;9.63;;;4.67;;
34459;SDS011;20704;51.260;22.558;2022-08-19T08:38:18;8.38;;;4.13;;
34459;SDS011;20704;51.260;22.558;2022-08-19T08:40:45;7.72;;;4.97;;
34459;SDS011;20704;51.260;22.558;2022-08-19T08:45:59;8.50;;;4.45;;
34459;SDS011;20704;51.260;22.558;2022-08-19T08:48:38;7.35;;;3.97;;
34459;SDS011;20704;51.260;22.558;2022-08-19T08:51:10;7.78;;;4.93;;
34459;SDS011;20704;51.260;22.558;2022-08-19T08:53:41;4.18;;;3.50;;
34459;SDS011;20704;51.260;22.558;2022-08-19T08:56:10;6.37;;;3.30;;
34459;SDS011;20704;51.260;22.558;2022-08-19T09:01:11;7.70;;;3.63;;
34459;SDS011;20704;51.260;22.558;2022-08-19T09:03:38;4.43;;;3.35;;
34459;SDS011;20704;51.260;22.558;2022-08-19T09:06:12;12.77;;;4.35;;
34459;SDS011;20704;51.260;22.558;2022-08-19T09:08:48;7.40;;;4.05;;
34459;SDS011;20704;51.260;22.558;2022-08-19T09:11:30;6.45;;;3.42;;
34459;SDS011;20704;51.260;22.558;2022-08-19T09:16:46;8.20;;;3.70;;
34459;SDS011;20704;51.260;22.558;2022-08-19T09:19:14;7.72;;;3.33;;
34459;SDS011;20704;51.260;22.558;2022-08-19T09:21:43;7.93;;;3.30;;
34459;SDS011;20704;51.260;22.558;2022-08-19T09:24:10;6.85;;;3.53;;
34459;SDS011;20704;51.260;22.558;2022-08-19T09:26:37;8.50;;;3.97;;
34459;SDS011;20704;51.260;22.558;2022-08-19T09:29:04;10.52;;;3.78;;
34459;SDS011;20704;51.260;22.558;2022-08-19T09:31:32;8.05;;;3.25;;
34459;SDS011;20704;51.260;22.558;2022-08-19T09:33:58;8.93;;;4.03;;
34459;SDS011;20704;51.260;22.558;2022-08-19T09:36:26;11.40;;;4.18;;
34459;SDS011;20704;51.260;22.558;2022-08-19T09:38:58;14.18;;;3.67;;
34459;SDS011;20704;51.260;22.558;2022-08-19T09:41:25;6.25;;;3.70;;
34459;SDS011;20704;51.260;22.558;2022-08-19T09:43:53;4.28;;;3.05;;
34459;SDS011;20704;51.260;22.558;2022-08-19T09:46:21;7.72;;;3.28;;
34459;SDS011;20704;51.260;22.558;2022-08-19T09:48:50;9.20;;;2.72;;
34459;SDS011;20704;51.260;22.558;2022-08-19T09:51:26;8.60;;;3.45;;
34459;SDS011;20704;51.260;22.558;2022-08-19T09:53:58;10.23;;;3.75;;
34459;SDS011;20704;51.260;22.558;2022-08-19T09:56:26;13.82;;;3.60;;
34459;SDS011;20704;51.260;22.558;2022-08-19T09:58:52;7.85;;;3.70;;
34459;SDS011;20704;51.260;22.558;2022-08-19T10:01:20;7.63;;;3.28;;
34459;SDS011;20704;51.260;22.558;2022-08-19T10:03:52;11.38;;;4.18;;
34459;SDS011;20704;51.260;22.558;2022-08-19T10:06:21;9.70;;;3.78;;
34459;SDS011;20704;51.260;22.558;2022-08-19T10:08:49;5.50;;;3.75;;
34459;SDS011;20704;51.260;22.558;2022-08-19T10:11:17;6.18;;;3.65;;
34459;SDS011;20704;51.260;22.558;2022-08-19T10:13:45;8.43;;;3.25;;
34459;SDS011;20704;51.260;22.558;2022-08-19T10:16:16;7.57;;;3.55;;
34459;SDS011;20704;51.260;22.558;2022-08-19T10:18:45;7.95;;;3.60;;
34459;SDS011;20704;51.260;22.558;2022-08-19T10:21:22;8.90;;;3.50;;
34459;SDS011;20704;51.260;22.558;2022-08-19T10:23:50;8.82;;;3.50;;
34459;SDS011;20704;51.260;22.558;2022-08-19T10:26:22;5.05;;;3.55;;
34459;SDS011;20704;51.260;22.558;2022-08-19T10:28:50;5.85;;;3.85;;
34459;SDS011;20704;51.260;22.558;2022-08-19T10:31:21;7.20;;;3.13;;
34459;SDS011;20704;51.260;22.558;2022-08-19T10:33:50;9.55;;;3.20;;
34459;SDS011;20704;51.260;22.558;2022-08-19T10:36:23;7.55;;;3.13;;
34459;SDS011;20704;51.260;22.558;2022-08-19T10:38:54;9.35;;;4.07;;
34459;SDS011;20704;51.260;22.558;2022-08-19T10:41:24;3.50;;;3.20;;
34459;SDS011;20704;51.260;22.558;2022-08-19T10:43:53;7.65;;;3.70;;
34459;SDS011;20704;51.260;22.558;2022-08-19T10:46:22;8.50;;;4.47;;
34459;SDS011;20704;51.260;22.558;2022-08-19T10:48:49;5.47;;;3.00;;
34459;SDS011;20704;51.260;22.558;2022-08-19T10:51:16;7.85;;;3.30;;
34459;SDS011;20704;51.260;22.558;2022-08-19T10:54:02;6.88;;;3.58;;
34459;SDS011;20704;51.260;22.558;2022-08-19T10:56:28;11.50;;;3.70;;
34459;SDS011;20704;51.260;22.558;2022-08-19T10:59:14;7.95;;;3.58;;
34459;SDS011;20704;51.260;22.558;2022-08-19T11:01:41;8.02;;;3.90;;
34459;SDS011;20704;51.260;22.558;2022-08-19T11:04:09;5.65;;;2.88;;
34459;SDS011;20704;51.260;22.558;2022-08-19T11:06:42;13.68;;;2.85;;
34459;SDS011;20704;51.260;22.558;2022-08-19T11:09:13;6.85;;;4.10;;
34459;SDS011;20704;51.260;22.558;2022-08-19T11:11:41;6.65;;;3.00;;
34459;SDS011;20704;51.260;22.558;2022-08-19T11:14:08;8.35;;;3.10;;
34459;SDS011;20704;51.260;22.558;2022-08-19T11:16:39;4.35;;;3.05;;
34459;SDS011;20704;51.260;22.558;2022-08-19T11:19:07;6.43;;;3.47;;
34459;SDS011;20704;51.260;22.558;2022-08-19T11:21:39;7.17;;;4.13;;
34459;SDS011;20704;51.260;22.558;2022-08-19T11:24:08;6.57;;;3.13;;
34459;SDS011;20704;51.260;22.558;2022-08-19T11:26:37;4.95;;;3.00;;
34459;SDS011;20704;51.260;22.558;2022-08-19T11:29:04;4.63;;;3.67;;
34459;SDS011;20704;51.260;22.558;2022-08-19T11:31:32;6.55;;;3.50;;
34459;SDS011;20704;51.260;22.558;2022-08-19T11:36:28;5.05;;;3.22;;
34459;SDS011;20704;51.260;22.558;2022-08-19T11:38:56;4.78;;;3.38;;
34459;SDS011;20704;51.260;22.558;2022-08-19T11:41:23;4.85;;;3.33;;
34459;SDS011;20704;51.260;22.558;2022-08-19T11:43:51;17.13;;;3.40;;
34459;SDS011;20704;51.260;22.558;2022-08-19T11:46:21;7.43;;;3.60;;
34459;SDS011;20704;51.260;22.558;2022-08-19T11:48:49;5.90;;;3.67;;
34459;SDS011;20704;51.260;22.558;2022-08-19T11:51:17;5.47;;;3.35;;
34459;SDS011;20704;51.260;22.558;2022-08-19T11:53:47;5.95;;;3.00;;
34459;SDS011;20704;51.260;22.558;2022-08-19T11:56:13;4.03;;;3.47;;
34459;SDS011;20704;51.260;22.558;2022-08-19T11:58:40;10.32;;;3.30;;
34459;SDS011;20704;51.260;22.558;2022-08-19T12:03:41;5.93;;;3.85;;
34459;SDS011;20704;51.260;22.558;2022-08-19T12:06:10;6.50;;;3.30;;
34459;SDS011;20704;51.260;22.558;2022-08-19T12:08:39;5.10;;;3.40;;
34459;SDS011;20704;51.260;22.558;2022-08-19T12:11:06;4.68;;;2.90;;
34459;SDS011;20704;51.260;22.558;2022-08-19T12:13:35;7.32;;;4.13;;
34459;SDS011;20704;51.260;22.558;2022-08-19T12:16:09;10.52;;;4.15;;
34459;SDS011;20704;51.260;22.558;2022-08-19T12:18:41;4.63;;;3.35;;
34459;SDS011;20704;51.260;22.558;2022-08-19T12:21:12;4.43;;;3.72;;
34459;SDS011;20704;51.260;22.558;2022-08-19T12:23:39;8.55;;;3.60;;
34459;SDS011;20704;51.260;22.558;2022-08-19T12:26:06;6.68;;;3.25;;
34459;SDS011;20704;51.260;22.558;2022-08-19T12:28:32;7.78;;;3.50;;
34459;SDS011;20704;51.260;22.558;2022-08-19T12:30:59;4.10;;;3.30;;
34459;SDS011;20704;51.260;22.558;2022-08-19T12:33:25;4.07;;;3.08;;
34459;SDS011;20704;51.260;22.558;2022-08-19T12:35:53;6.70;;;3.78;;
34459;SDS011;20704;51.260;22.558;2022-08-19T12:38:20;8.75;;;3.47;;
34459;SDS011;20704;51.260;22.558;2022-08-19T12:40:49;5.93;;;3.10;;
34459;SDS011;20704;51.260;22.558;2022-08-19T12:43:17;6.88;;;4.32;;
34459;SDS011;20704;51.260;22.558;2022-08-19T12:45:45;7.55;;;3.58;;
34459;SDS011;20704;51.260;22.558;2022-08-19T12:48:12;8.68;;;3.50;;
34459;SDS011;20704;51.260;22.558;2022-08-19T12:50:39;4.25;;;3.17;;
34459;SDS011;20704;51.260;22.558;2022-08-19T12:53:06;4.43;;;2.75;;
34459;SDS011;20704;51.260;22.558;2022-08-19T12:55:32;5.60;;;3.45;;
34459;SDS011;20704;51.260;22.558;2022-08-19T12:57:59;14.43;;;3.22;;
34459;SDS011;20704;51.260;22.558;2022-08-19T13:02:56;4.13;;;3.30;;
34459;SDS011;20704;51.260;22.558;2022-08-19T13:05:23;6.60;;;3.10;;
34459;SDS011;20704;51.260;22.558;2022-08-19T13:07:53;9.00;;;3.80;;
34459;SDS011;20704;51.260;22.558;2022-08-19T13:10:21;5.73;;;3.23;;
34459;SDS011;20704;51.260;22.558;2022-08-19T13:12:50;9.20;;;4.22;;
34459;SDS011;20704;51.260;22.558;2022-08-19T13:15:19;3.92;;;2.65;;
34459;SDS011;20704;51.260;22.558;2022-08-19T13:17:47;8.50;;;4.43;;
34459;SDS011;20704;51.260;22.558;2022-08-19T13:20:15;11.10;;;3.65;;
34459;SDS011;20704;51.260;22.558;2022-08-19T13:22:44;6.03;;;3.80;;
34459;SDS011;20704;51.260;22.558;2022-08-19T13:25:12;6.28;;;3.20;;
34459;SDS011;20704;51.260;22.558;2022-08-19T13:27:39;8.63;;;3.33;;
34459;SDS011;20704;51.260;22.558;2022-08-19T13:30:06;7.47;;;3.53;;
34459;SDS011;20704;51.260;22.558;2022-08-19T13:32:53;8.55;;;3.08;;
34459;SDS011;20704;51.260;22.558;2022-08-19T13:35:56;4.93;;;2.97;;
34459;SDS011;20704;51.260;22.558;2022-08-19T13:38:24;7.07;;;3.35;;
34459;SDS011;20704;51.260;22.558;2022-08-19T13:40:51;5.13;;;3.38;;
34459;SDS011;20704;51.260;22.558;2022-08-19T13:43:19;11.00;;;3.35;;
34459;SDS011;20704;51.260;22.558;2022-08-19T13:45:50;6.65;;;3.65;;
34459;SDS011;20704;51.260;22.558;2022-08-19T13:48:20;7.32;;;3.60;;
34459;SDS011;20704;51.260;22.558;2022-08-19T13:50:47;3.67;;;2.72;;
34459;SDS011;20704;51.260;22.558;2022-08-19T13:53:14;8.13;;;3.00;;
34459;SDS011;20704;51.260;22.558;2022-08-19T13:55:41;5.47;;;2.63;;
34459;SDS011;20704;51.260;22.558;2022-08-19T13:58:08;5.05;;;2.95;;
34459;SDS011;20704;51.260;22.558;2022-08-19T14:00:37;6.82;;;3.63;;
34459;SDS011;20704;51.260;22.558;2022-08-19T14:03:06;4.50;;;3.15;;
34459;SDS011;20704;51.260;22.558;2022-08-19T14:05:33;5.65;;;3.33;;
34459;SDS011;20704;51.260;22.558;2022-08-19T14:07:59;4.82;;;3.15;;
34459;SDS011;20704;51.260;22.558;2022-08-19T14:10:26;7.07;;;2.42;;
34459;SDS011;20704;51.260;22.558;2022-08-19T14:12:57;9.57;;;3.03;;
34459;SDS011;20704;51.260;22.558;2022-08-19T14:15:25;3.92;;;3.25;;
34459;SDS011;20704;51.260;22.558;2022-08-19T14:17:52;7.15;;;3.35;;
34459;SDS011;20704;51.260;22.558;2022-08-19T14:20:19;7.47;;;3.25;;
34459;SDS011;20704;51.260;22.558;2022-08-19T14:22:46;11.45;;;4.25;;
34459;SDS011;20704;51.260;22.558;2022-08-19T14:25:15;5.40;;;3.13;;
34459;SDS011;20704;51.260;22.558;2022-08-19T14:27:44;8.93;;;3.30;;
34459;SDS011;20704;51.260;22.558;2022-08-19T14:30:12;8.32;;;3.78;;
34459;SDS011;20704;51.260;22.558;2022-08-19T14:32:41;5.55;;;3.22;;
34459;SDS011;20704;51.260;22.558;2022-08-19T14:35:08;7.32;;;3.33;;
34459;SDS011;20704;51.260;22.558;2022-08-19T14:37:35;4.38;;;2.80;;
34459;SDS011;20704;51.260;22.558;2022-08-19T14:40:02;10.70;;;3.58;;
34459;SDS011;20704;51.260;22.558;2022-08-19T14:42:29;12.85;;;3.95;;
34459;SDS011;20704;51.260;22.558;2022-08-19T14:44:58;5.13;;;3.17;;
34459;SDS011;20704;51.260;22.558;2022-08-19T14:47:25;3.60;;;3.28;;
34459;SDS011;20704;51.260;22.558;2022-08-19T14:49:51;8.88;;;3.45;;
34459;SDS011;20704;51.260;22.558;2022-08-19T14:52:18;5.47;;;3.13;;
34459;SDS011;20704;51.260;22.558;2022-08-19T14:54:44;5.88;;;3.00;;
34459;SDS011;20704;51.260;22.558;2022-08-19T14:57:11;6.25;;;2.92;;
34459;SDS011;20704;51.260;22.558;2022-08-19T14:59:40;4.75;;;3.25;;
34459;SDS011;20704;51.260;22.558;2022-08-19T15:02:07;4.22;;;3.10;;
34459;SDS011;20704;51.260;22.558;2022-08-19T15:04:33;7.03;;;2.97;;